Ohio State University Airport
KOSU : now visible

Airfield :











YOU CAN JOIN US ON...

 
LOGIN :

Register | Disclaimer

   EN    FR    IT 

 









Legend :    VFR   Marginal VFR   IFR   Intensive IFR   Very Intensive IFR
Visi :
Ceiling :
>= 8 km
>= 3000ft
5 to 8 km
1000 to 3000 ft
1500m to 5 km
500 to 1000 ft
800 to 1500m
200 to 500 ft
< 800m
< 200 ft
Symbols :   Thunderstorms  Fog  Heavy snow  Heavy precipitations  Wind > 20 kt






- Airport Elevation : 905 ft


KOSU - Ohio State University

CURRENT METAR :
  • 181353Z 10009KT 10SM FEW070 BKN090 OVC100 16/10 A3000 RMK AO2 RAE53 SLP157 P0001 T01560100

EXPIRED METARs :
  • 181253Z 11003KT 10SM -RA FEW065 OVC095 16/08 A3002 RMK AO2 RAB49 SLP161 P0000 T01560083
  • 181153Z 12005KT 10SM BKN110 16/07 A3001 RMK AO2 SLP159 T01560072 10156 20139 51008

TAF N/A
KZID FIR / North America



MET'MAP, your aeronautical weather chart ! - Copyright ORBIFLY December 2007 - Disclaimer

ORBIFLY MET'MAP TEAM :

Programming & Development : Alexandra Zaïnal
Original concept : Baudouin d'Aumeries
Technical & hardware support : Manuel Goepfert
Assistance : Marc-Olivier Méhu

Contact : metmap@orbifly.com




SOURCES & CREDITS :

   NOAA       Earth
Advisory